Time;durP1;ratioP1;P1;durP2;ratioP2;P2;SDS_P1;SDS_P2;PMS_P1;PMS_P2;Temp;Humidity;BMP_temperature;BMP_pressure;BME280_temperature;BME280_humidity;BME280_pressure;Samples;Min_cycle;Max_cycle;Signal;HPM_P1;HPM_P2
2022/01/31 00:00:25;;;;;;;21.60;6.27;;;;;;;8.06;42.69;98265.75;8418123;28;20250;-82
2022/01/31 00:04:28;;;;;;;23.77;6.60;;;;;;;8.08;42.91;98253.66;8419211;28;20234;-82
2022/01/31 00:08:32;;;;;;;18.57;5.67;;;;;;;8.11;42.77;98250.13;8417475;28;20238;-82
2022/01/31 00:12:46;;;;;;;19.67;6.07;;;;;;;8.07;43.14;98223.56;8419220;28;20223;-83
2022/01/31 00:16:50;;;;;;;20.07;6.27;;;;;;;8.05;43.01;98215.03;8419002;28;20230;-82
2022/01/31 00:20:54;;;;;;;23.47;6.17;;;;;;;8.03;43.29;98220.28;8418912;28;20233;-82
2022/01/31 00:24:57;;;;;;;21.73;6.10;;;;;;;8.02;43.50;98208.25;8418766;28;20230;-82
2022/01/31 00:29:00;;;;;;;17.77;5.50;;;;;;;7.98;43.69;98196.34;8418346;28;20235;-81
2022/01/31 00:33:04;;;;;;;20.07;5.47;;;;;;;8.00;43.77;98180.81;8418368;28;20231;-82
2022/01/31 00:37:07;;;;;;;25.20;6.13;;;;;;;7.90;44.09;98187.13;8418082;28;20538;-82
2022/01/31 00:41:11;;;;;;;20.40;5.50;;;;;;;7.92;43.82;98191.38;8418028;28;20234;-82
2022/01/31 00:45:20;;;;;;;20.53;5.50;;;;;;;7.83;44.36;98177.00;8417245;28;20380;-81
2022/01/31 00:49:34;;;;;;;22.70;5.53;;;;;;;7.93;44.30;98198.22;8417533;28;20234;-80
2022/01/31 00:53:38;;;;;;;17.53;5.10;;;;;;;7.84;44.88;98180.44;8417397;28;20225;-81
2022/01/31 00:57:41;;;;;;;18.50;5.67;;;;;;;7.87;44.26;98154.56;8417651;28;20586;-81
2022/01/31 01:01:44;;;;;;;19.53;5.50;;;;;;;7.69;44.51;98127.63;8417030;28;20250;-81
2022/01/31 01:05:49;;;;;;;24.27;5.93;;;;;;;7.79;44.67;98110.13;8416886;28;20242;-81
2022/01/31 01:09:52;;;;;;;21.37;5.63;;;;;;;7.84;44.77;98108.22;8416981;28;20518;-81
2022/01/31 01:13:55;;;;;;;24.53;5.93;;;;;;;7.83;44.95;98111.72;8416871;28;20417;-81
2022/01/31 01:17:58;;;;;;;18.63;6.10;;;;;;;7.81;45.11;98113.50;8416705;28;20556;-81
2022/01/31 01:22:04;;;;;;;18.90;5.50;;;;;;;7.87;45.16;98091.84;8416659;28;20226;-81
2022/01/31 01:26:08;;;;;;;20.47;6.10;;;;;;;7.82;44.56;98064.47;8416371;28;20234;-80
2022/01/31 01:30:13;;;;;;;22.77;5.70;;;;;;;7.77;44.91;98056.03;8416474;28;20231;-81
2022/01/31 01:34:20;;;;;;;22.30;6.30;;;;;;;7.93;44.99;98035.75;8416271;28;20231;-81
2022/01/31 01:38:29;;;;;;;20.53;5.40;;;;;;;7.89;44.44;98017.84;8415955;28;20238;-81
2022/01/31 01:42:33;;;;;;;20.67;5.67;;;;;;;7.50;45.64;97997.59;8416160;28;20253;-81
2022/01/31 01:46:36;;;;;;;19.67;5.37;;;;;;;7.57;45.76;97979.31;8417472;28;20234;-81
2022/01/31 01:50:41;;;;;;;21.73;5.67;;;;;;;7.52;45.73;97940.00;8417606;28;20402;-80
2022/01/31 01:54:47;;;;;;;19.47;5.53;;;;;;;7.60;45.85;97917.38;8417334;28;20210;-81
2022/01/31 01:58:50;;;;;;;18.17;6.07;;;;;;;7.57;46.33;97904.59;8415026;28;20542;-81
2022/01/31 02:02:54;;;;;;;17.07;5.10;;;;;;;7.52;46.36;97885.88;8403354;28;20231;-81
2022/01/31 02:06:57;;;;;;;19.03;5.60;;;;;;;7.57;46.51;97867.66;8381988;28;20526;-81
2022/01/31 02:11:02;;;;;;;18.37;5.70;;;;;;;7.35;46.79;97850.34;8381588;28;20277;-81
2022/01/31 02:15:06;;;;;;;19.30;5.40;;;;;;;7.52;46.78;97834.34;8381620;28;20228;-82
2022/01/31 02:19:14;;;;;;;20.83;5.60;;;;;;;7.57;47.02;97821.28;8381300;28;20231;-81
2022/01/31 02:23:18;;;;;;;18.60;4.87;;;;;;;7.48;47.32;97806.97;8380786;28;20395;-81
2022/01/31 02:27:26;;;;;;;14.93;5.33;;;;;;;7.31;47.77;97788.66;8380333;28;20235;-81
2022/01/31 02:31:30;;;;;;;15.70;5.10;;;;;;;7.30;47.71;97802.47;8380411;28;20239;-81
2022/01/31 02:35:34;;;;;;;17.63;5.23;;;;;;;7.45;47.78;97781.31;8379914;28;20223;-81
2022/01/31 02:39:39;;;;;;;19.77;5.53;;;;;;;7.30;48.32;97790.41;8380132;28;20231;-81
2022/01/31 02:43:47;;;;;;;15.00;5.30;;;;;;;7.20;48.17;97765.88;8379817;28;20231;-80
2022/01/31 02:47:54;;;;;;;15.63;5.17;;;;;;;7.46;47.92;97756.38;8379816;28;20535;-80
2022/01/31 02:52:00;;;;;;;14.93;5.30;;;;;;;7.23;48.74;97717.69;8380778;28;20238;-81
2022/01/31 02:56:06;;;;;;;11.53;4.70;;;;;;;7.01;49.15;97696.97;8381051;28;20542;-81
2022/01/31 03:00:10;;;;;;;16.77;5.57;;;;;;;7.34;48.38;97681.22;8380960;28;20231;-81
2022/01/31 03:04:14;;;;;;;16.60;5.17;;;;;;;7.23;48.59;97665.28;8403611;28;20226;-82
2022/01/31 03:08:17;;;;;;;20.23;5.40;;;;;;;7.00;49.16;97660.97;8413721;28;20243;-82
2022/01/31 03:12:22;;;;;;;14.63;5.00;;;;;;;7.23;48.79;97665.28;8420406;28;20233;-82
2022/01/31 03:16:25;;;;;;;13.77;4.67;;;;;;;7.18;48.93;97659.50;8420665;28;20249;-82
2022/01/31 03:20:28;;;;;;;16.37;4.80;;;;;;;7.02;48.81;97662.56;8420542;28;20250;-81
2022/01/31 03:24:31;;;;;;;15.23;5.30;;;;;;;7.34;48.45;97659.78;8420159;28;20229;-83
2022/01/31 03:28:36;;;;;;;14.50;4.57;;;;;;;7.21;48.64;97644.75;8419986;28;20230;-82
2022/01/31 03:32:39;;;;;;;16.13;5.70;;;;;;;6.96;48.90;97641.38;8420158;28;20239;-81
2022/01/31 03:36:43;;;;;;;14.27;4.80;;;;;;;7.05;49.02;97628.19;8419727;28;20235;-81
2022/01/31 03:40:46;;;;;;;16.57;5.30;;;;;;;7.27;48.49;97620.50;8420137;28;20231;-81
2022/01/31 03:44:50;;;;;;;15.17;5.37;;;;;;;7.27;48.38;97594.75;8419350;28;20239;-81
2022/01/31 03:48:54;;;;;;;14.80;4.73;;;;;;;7.41;47.99;97563.34;8419244;28;20235;-81
2022/01/31 03:52:57;;;;;;;16.13;4.87;;;;;;;6.98;48.90;97565.75;8419235;28;20234;-81
2022/01/31 03:57:00;;;;;;;16.20;5.40;;;;;;;6.80;49.16;97569.84;8418823;28;20226;-81
2022/01/31 04:01:04;;;;;;;16.13;5.27;;;;;;;6.88;49.49;97579.84;8418842;28;20241;-81
2022/01/31 04:05:09;;;;;;;20.37;5.93;;;;;;;6.88;49.44;97602.19;8418799;28;20537;-81
2022/01/31 04:09:12;;;;;;;13.80;5.10;;;;;;;7.11;49.02;97603.94;8418905;28;20230;-81
2022/01/31 04:13:16;;;;;;;15.60;5.20;;;;;;;6.99;49.00;97587.22;8418757;28;20413;-81
2022/01/31 04:17:21;;;;;;;14.80;5.10;;;;;;;7.33;48.39;97555.03;8418366;28;20274;-81
2022/01/31 04:21:25;;;;;;;16.00;5.07;;;;;;;7.30;48.45;97544.88;8417664;28;20534;-81
2022/01/31 04:25:42;;;;;;;15.00;5.43;;;;;;;7.22;49.07;97530.53;8418808;28;20241;-81
2022/01/31 04:29:47;;;;;;;16.83;5.40;;;;;;;7.09;49.22;97513.03;8418197;28;20226;-80
2022/01/31 04:33:52;;;;;;;16.43;5.23;;;;;;;7.14;48.86;97503.38;8418064;28;20234;-81
2022/01/31 04:37:58;;;;;;;14.80;5.30;;;;;;;6.94;49.45;97501.56;8417769;28;20256;-81
2022/01/31 04:42:01;;;;;;;14.90;5.20;;;;;;;6.94;49.68;97492.09;8417745;28;20418;-82
2022/01/31 04:46:06;;;;;;;14.80;5.07;;;;;;;6.94;49.45;97475.84;8417921;28;20276;-82
2022/01/31 04:50:11;;;;;;;17.60;5.60;;;;;;;7.02;49.43;97454.03;8418045;28;20548;-81
2022/01/31 04:54:15;;;;;;;19.47;5.30;;;;;;;7.02;49.54;97451.44;8416508;28;20223;-82
2022/01/31 04:58:19;;;;;;;17.13;5.13;;;;;;;7.13;49.17;97433.03;8416546;28;20233;-81
2022/01/31 05:02:23;;;;;;;17.30;5.40;;;;;;;7.10;48.90;97409.13;8416408;28;20234;-82
2022/01/31 05:06:33;;;;;;;15.77;5.03;;;;;;;7.01;49.48;97397.47;8418065;28;20417;-82
2022/01/31 05:10:42;;;;;;;15.97;5.60;;;;;;;7.23;49.55;97371.69;8449581;28;20226;-82
2022/01/31 05:14:46;;;;;;;13.43;5.13;;;;;;;7.06;49.43;97362.06;8449908;28;20226;-82
2022/01/31 05:18:49;;;;;;;15.93;5.40;;;;;;;7.08;49.36;97337.09;8449543;28;20241;-82
2022/01/31 05:22:53;;;;;;;16.00;5.80;;;;;;;6.77;50.35;97317.72;8449014;28;20375;-82
2022/01/31 05:26:57;;;;;;;17.57;5.43;;;;;;;6.89;50.42;97315.56;8449155;28;20237;-81
2022/01/31 05:31:00;;;;;;;15.63;5.17;;;;;;;7.19;49.94;97298.03;8449171;28;20230;-82
2022/01/31 05:35:04;;;;;;;16.87;4.90;;;;;;;7.20;49.72;97279.94;8448052;28;20234;-83
2022/01/31 05:39:09;;;;;;;18.23;4.90;;;;;;;7.24;50.53;97276.34;8449046;28;20420;-82
2022/01/31 05:43:13;;;;;;;15.13;4.93;;;;;;;7.09;51.08;97265.84;8448897;28;20533;-81
2022/01/31 05:47:17;;;;;;;23.63;5.27;;;;;;;7.00;50.90;97249.88;8448033;28;20238;-80
2022/01/31 05:51:23;;;;;;;12.47;4.37;;;;;;;7.02;50.65;97216.34;8448085;28;20420;-82
2022/01/31 05:55:27;;;;;;;20.17;5.23;;;;;;;7.08;50.68;97215.25;8448206;28;20550;-82
2022/01/31 05:59:31;;;;;;;13.70;4.57;;;;;;;7.12;50.31;97199.63;8448200;28;20275;-82
2022/01/31 06:03:34;;;;;;;16.33;5.10;;;;;;;7.28;50.27;97184.34;8430070;28;20218;-82
2022/01/31 06:07:37;;;;;;;13.93;4.33;;;;;;;7.31;50.30;97173.06;8428639;28;20222;-81
2022/01/31 06:11:42;;;;;;;14.30;4.70;;;;;;;7.15;50.54;97147.97;8447716;28;20234;-81
2022/01/31 06:15:45;;;;;;;18.53;5.20;;;;;;;7.32;50.39;97138.69;8419556;28;20241;-81
2022/01/31 06:19:48;;;;;;;13.30;4.37;;;;;;;7.43;51.78;97149.34;8413773;28;20231;-82
2022/01/31 06:23:52;;;;;;;18.47;5.23;;;;;;;7.31;50.54;97143.00;8413827;28;20451;-81
2022/01/31 06:27:56;;;;;;;17.40;5.50;;;;;;;7.32;50.87;97143.81;8413736;28;20234;-83
2022/01/31 06:32:00;;;;;;;18.40;5.37;;;;;;;7.31;51.78;97144.72;8413354;28;20230;-82
2022/01/31 06:36:03;;;;;;;16.70;5.43;;;;;;;7.15;53.58;97149.72;8412982;28;20231;-81
2022/01/31 06:40:07;;;;;;;17.00;5.27;;;;;;;7.07;54.35;97144.06;8413711;28;20246;-80
2022/01/31 06:44:11;;;;;;;17.57;5.60;;;;;;;7.12;54.29;97135.25;8412826;28;20387;-79
2022/01/31 06:48:15;;;;;;;16.83;5.40;;;;;;;6.96;55.19;97126.50;8413195;28;20231;-80
2022/01/31 06:52:18;;;;;;;18.80;5.57;;;;;;;6.88;56.16;97120.88;8413343;28;20246;-79
2022/01/31 06:56:29;;;;;;;15.00;5.53;;;;;;;6.40;57.51;97108.25;8413132;28;20234;-79
2022/01/31 07:00:33;;;;;;;14.33;5.77;;;;;;;6.85;56.26;97096.06;8412591;28;20226;-79
2022/01/31 07:04:36;;;;;;;18.30;6.03;;;;;;;6.58;56.69;97096.34;8412801;28;20537;-79
2022/01/31 07:08:39;;;;;;;15.13;5.80;;;;;;;6.69;56.77;97089.94;8412618;28;20425;-79
2022/01/31 07:12:48;;;;;;;16.97;5.70;;;;;;;6.79;56.54;97088.63;8412773;28;20432;-79
2022/01/31 07:16:52;;;;;;;19.40;6.67;;;;;;;6.83;56.47;97064.41;8413252;28;20410;-80
2022/01/31 07:20:56;;;;;;;15.17;5.63;;;;;;;6.55;57.77;97068.19;8412875;28;21306;-80
2022/01/31 07:25:04;;;;;;;12.50;4.97;;;;;;;6.62;57.06;97054.16;8413524;28;20290;-80
2022/01/31 07:29:07;;;;;;;11.07;4.70;;;;;;;6.73;56.94;97055.44;8413484;28;20235;-80
2022/01/31 07:33:12;;;;;;;9.83;4.60;;;;;;;6.66;57.49;97031.69;8413257;28;20510;-81
2022/01/31 07:37:17;;;;;;;10.53;4.60;;;;;;;6.49;57.65;97047.03;8413157;28;20238;-80
2022/01/31 07:41:20;;;;;;;5.90;3.43;;;;;;;6.36;58.46;97042.44;8413047;28;20234;-81
2022/01/31 07:45:23;;;;;;;8.93;3.30;;;;;;;6.37;58.84;97028.66;8412625;28;20238;-80
2022/01/31 07:49:27;;;;;;;6.77;3.13;;;;;;;6.46;58.61;97022.28;8412494;28;20302;-79
2022/01/31 07:53:31;;;;;;;5.90;2.70;;;;;;;6.36;59.27;97021.84;8412423;28;20409;-79
2022/01/31 07:57:34;;;;;;;5.57;2.50;;;;;;;6.29;60.14;97033.28;8415294;28;20230;-80
2022/01/31 08:01:42;;;;;;;4.13;2.30;;;;;;;6.30;60.20;97021.25;8418203;28;20234;-80
2022/01/31 08:05:46;;;;;;;4.37;2.70;;;;;;;6.37;59.78;97020.94;8418191;28;20245;-80
2022/01/31 08:09:49;;;;;;;3.90;2.07;;;;;;;6.22;60.91;97006.97;8417746;28;20227;-80
2022/01/31 08:13:57;;;;;;;3.70;1.73;;;;;;;6.24;61.55;97018.06;8417940;28;20297;-79
2022/01/31 08:18:00;;;;;;;3.17;1.77;;;;;;;6.08;62.09;97009.31;8417775;28;20552;-79
2022/01/31 08:22:04;;;;;;;2.63;1.67;;;;;;;6.15;61.60;97005.59;8417616;28;20502;-79
2022/01/31 08:26:11;;;;;;;2.63;1.43;;;;;;;6.22;61.94;97001.00;8416967;28;20231;-79
2022/01/31 08:30:20;;;;;;;3.37;1.57;;;;;;;6.13;61.74;97024.53;8417782;28;20249;-78
2022/01/31 08:35:47;;;;;;;2.73;1.63;;;;;;;6.11;61.73;97011.78;8417817;28;20237;-78
2022/01/31 08:38:49;;;;;;;3.90;1.70;;;;;;;5.84;62.95;96998.25;8417800;28;20227;-78
2022/01/31 08:42:52;;;;;;;4.30;1.70;;;;;;;5.70;63.84;97003.97;8417748;28;20231;-78
2022/01/31 08:46:55;;;;;;;2.50;1.30;;;;;;;6.04;62.93;97026.59;8417421;28;20231;-79
2022/01/31 08:50:59;;;;;;;2.50;1.60;;;;;;;6.14;62.60;96992.81;8417304;28;20234;-80
2022/01/31 08:55:04;;;;;;;2.60;1.57;;;;;;;6.25;61.73;96986.28;8417202;28;20236;-79
2022/01/31 08:59:08;;;;;;;2.47;1.70;;;;;;;6.64;61.53;96995.78;8417391;28;20227;-79
2022/01/31 09:03:35;;;;;;;2.63;1.67;;;;;;;6.40;61.83;96987.38;8417205;28;20293;-79
2022/01/31 09:07:38;;;;;;;3.33;1.60;;;;;;;6.66;60.79;96985.41;8416386;28;20289;-79
2022/01/31 09:11:43;;;;;;;2.70;1.70;;;;;;;6.45;61.25;96984.59;8416628;28;20243;-79
2022/01/31 09:15:46;;;;;;;3.70;1.90;;;;;;;6.59;61.44;96984.00;8416536;28;20230;-79
2022/01/31 09:19:49;;;;;;;4.27;1.70;;;;;;;6.57;61.66;96976.34;8416882;28;20243;-79
2022/01/31 09:23:53;;;;;;;3.77;1.53;;;;;;;6.77;61.46;96978.03;8416696;28;20234;-79
2022/01/31 09:28:00;;;;;;;4.03;2.00;;;;;;;8.18;75.93;96974.81;8415941;28;20227;-78
2022/01/31 09:32:07;;;;;;;4.47;2.17;;;;;;;9.66;69.47;96956.63;8415556;28;20243;-79
2022/01/31 09:36:10;;;;;;;4.80;2.10;;;;;;;10.22;60.47;96943.91;8416483;28;20297;-81
2022/01/31 09:40:18;;;;;;;4.27;2.03;;;;;;;8.21;56.64;96957.44;8415908;28;20227;-79
2022/01/31 09:44:37;;;;;;;5.13;2.20;;;;;;;8.01;57.62;96955.88;8417344;28;20227;-81
2022/01/31 09:48:44;;;;;;;3.43;1.90;;;;;;;7.66;58.72;96967.09;8415280;28;20294;-81
2022/01/31 09:52:47;;;;;;;2.97;2.00;;;;;;;7.57;59.32;96963.19;8415829;28;20245;-81
2022/01/31 09:56:50;;;;;;;2.70;2.23;;;;;;;7.66;58.60;96964.50;8415662;28;20234;-80
2022/01/31 10:01:05;;;;;;;4.33;1.80;;;;;;;7.67;58.77;96972.13;8415866;28;20231;-80
2022/01/31 10:05:09;;;;;;;4.90;1.80;;;;;;;7.43;59.19;96972.44;8415602;28;20234;-80
2022/01/31 10:09:14;;;;;;;4.63;2.13;;;;;;;7.89;58.79;96964.19;8416145;28;20234;-80
2022/01/31 10:17:48;;;;;;;4.17;1.87;;;;;;;7.56;58.47;96941.75;8415513;28;20218;-81
2022/01/31 10:21:58;;;;;;;4.43;1.90;;;;;;;7.92;57.58;96942.59;8414830;28;20294;-80
2022/01/31 10:26:03;;;;;;;4.93;2.30;;;;;;;7.94;58.10;96933.88;8414944;28;20237;-80
2022/01/31 10:30:09;;;;;;;3.43;1.90;;;;;;;7.86;58.24;96928.25;8414522;28;20239;-80
2022/01/31 10:34:19;;;;;;;4.60;1.90;;;;;;;7.47;58.75;96931.91;8414450;28;20230;-80
2022/01/31 10:38:31;;;;;;;4.73;2.00;;;;;;;7.78;58.62;96918.31;8414626;28;20239;-81
2022/01/31 10:52:02;;;;;;;4.37;2.20;;;;;;;7.35;60.22;96917.00;8414590;28;20238;-79
2022/01/31 10:56:05;;;;;;;5.00;1.97;;;;;;;7.27;60.08;96893.38;8414352;28;20226;-80
2022/01/31 11:00:09;;;;;;;4.90;2.20;;;;;;;7.46;59.54;96906.19;8411011;28;20230;-81
2022/01/31 11:04:14;;;;;;;4.53;2.10;;;;;;;7.32;60.12;96897.41;8404040;28;20268;-80
2022/01/31 11:08:19;;;;;;;5.30;1.80;;;;;;;7.18;60.46;96887.78;8413256;28;20241;-82
2022/01/31 11:12:23;;;;;;;4.30;2.00;;;;;;;7.17;60.70;96882.69;8401832;28;20227;-80
2022/01/31 11:16:28;;;;;;;6.27;2.37;;;;;;;7.37;60.77;96884.31;8381588;28;20293;-80
2022/01/31 11:20:33;;;;;;;4.20;1.77;;;;;;;7.59;60.24;96873.78;8380939;28;20219;-81
2022/01/31 11:24:47;;;;;;;4.87;2.00;;;;;;;7.43;60.00;96864.22;8380670;28;20322;-81
2022/01/31 11:28:50;;;;;;;2.83;1.77;;;;;;;7.55;60.51;96859.38;8381140;28;20233;-81
2022/01/31 11:32:54;;;;;;;3.27;1.80;;;;;;;7.41;60.59;96860.91;8386781;28;20235;-82
2022/01/31 11:36:59;;;;;;;6.13;1.77;;;;;;;7.31;60.39;96844.25;8386656;28;20232;-81
2022/01/31 11:41:04;;;;;;;3.50;2.03;;;;;;;7.52;59.97;96847.50;8387149;28;20227;-80
2022/01/31 11:45:11;;;;;;;3.83;2.10;;;;;;;7.40;60.56;96856.66;8386811;28;20235;-80
2022/01/31 11:49:15;;;;;;;2.97;1.63;;;;;;;7.51;60.36;96847.56;8386548;28;20231;-81
2022/01/31 11:53:27;;;;;;;2.93;1.70;;;;;;;7.23;60.62;96847.19;8386710;28;20235;-81
2022/01/31 11:57:33;;;;;;;4.17;1.80;;;;;;;7.28;61.01;96844.38;8401930;28;20356;-81
2022/01/31 12:01:36;;;;;;;3.87;1.60;;;;;;;7.30;60.63;96837.41;8421136;28;20222;-80
2022/01/31 12:05:40;;;;;;;4.40;1.83;;;;;;;7.33;60.76;96834.69;8421307;28;20558;-82
2022/01/31 12:09:44;;;;;;;2.23;1.20;;;;;;;7.02;60.45;96840.50;8421094;28;20313;-79
2022/01/31 12:13:53;;;;;;;2.50;1.40;;;;;;;7.11;60.57;96832.31;8421284;28;20550;-81
2022/01/31 12:18:16;;;;;;;4.33;1.47;;;;;;;7.15;61.25;96817.56;8418464;28;20233;-81
2022/01/31 12:22:44;;;;;;;2.33;1.47;;;;;;;6.89;62.10;96824.78;8420450;28;20563;-81
2022/01/31 12:26:52;;;;;;;3.73;1.63;;;;;;;7.07;62.18;96827.41;8418520;28;20226;-81
2022/01/31 12:30:57;;;;;;;3.03;1.50;;;;;;;7.07;62.92;96809.38;8418982;28;20234;-81
2022/01/31 12:35:02;;;;;;;5.77;1.70;;;;;;;7.28;62.61;96813.47;8418905;28;20250;-80
2022/01/31 12:40:02;;;;;;;2.67;1.50;;;;;;;7.23;61.96;96808.56;8419829;28;20237;-80
2022/01/31 12:44:45;;;;;;;3.37;1.60;;;;;;;7.40;61.54;96799.97;8316347;28;20582;-81
2022/01/31 12:49:11;;;;;;;3.33;1.70;;;;;;;7.39;61.77;96805.22;8382381;28;20227;-81
2022/01/31 12:53:50;;;;;;;3.63;1.67;;;;;;;7.32;61.73;96798.72;8419490;28;20249;-81
2022/01/31 12:57:54;;;;;;;3.13;1.40;;;;;;;7.34;62.40;96802.03;8360598;28;20248;-81
2022/01/31 13:01:58;;;;;;;4.33;1.60;;;;;;;7.26;62.52;96806.75;8436296;28;20247;-83
2022/01/31 13:06:03;;;;;;;3.00;1.33;;;;;;;7.13;62.46;96794.47;8433143;28;20354;-82
2022/01/31 13:10:12;;;;;;;2.77;1.37;;;;;;;7.14;62.63;96803.00;8431898;28;20230;-83
2022/01/31 13:14:19;;;;;;;3.03;1.57;;;;;;;7.05;62.92;96806.88;8438740;28;20242;-82
2022/01/31 13:18:42;;;;;;;3.07;1.20;;;;;;;6.77;63.34;96799.66;8434374;28;20233;-82
2022/01/31 13:22:46;;;;;;;1.80;1.20;;;;;;;7.04;62.91;96800.91;8438829;28;20234;-82
2022/01/31 13:26:51;;;;;;;2.27;0.97;;;;;;;6.64;64.18;96799.41;8450069;28;20236;-82
2022/01/31 13:30:55;;;;;;;2.17;1.33;;;;;;;6.60;63.79;96796.13;8450402;28;20222;-82
2022/01/31 13:35:00;;;;;;;1.83;1.00;;;;;;;6.41;65.07;96780.72;8447121;28;20293;-82
2022/01/31 13:39:05;;;;;;;2.30;0.83;;;;;;;6.53;64.32;96801.63;8431749;28;20230;-82
2022/01/31 13:43:11;;;;;;;5.43;1.07;;;;;;;6.53;64.48;96793.91;8431526;28;20222;-82
2022/01/31 13:47:14;;;;;;;2.20;1.40;;;;;;;6.62;63.99;96790.91;8432047;28;20232;-82
2022/01/31 13:51:26;;;;;;;2.17;1.03;;;;;;;6.59;63.98;96801.38;8430212;28;20222;-82
2022/01/31 13:55:31;;;;;;;3.03;1.47;;;;;;;6.44;64.55;96798.59;8431944;28;20226;-83
2022/01/31 13:59:34;;;;;;;3.17;1.93;;;;;;;6.52;64.37;96807.69;8432387;28;20211;-83
2022/01/31 14:03:41;;;;;;;2.60;1.50;;;;;;;6.45;64.09;96813.13;8431614;28;20241;-82
2022/01/31 14:07:44;;;;;;;2.57;1.57;;;;;;;6.64;64.41;96812.25;8430659;28;20258;-82
2022/01/31 14:11:51;;;;;;;1.87;1.30;;;;;;;6.60;63.87;96815.88;8433333;28;20231;-82
2022/01/31 14:15:56;;;;;;;1.53;1.00;;;;;;;6.20;64.04;96803.13;8432319;28;20233;-82
2022/01/31 14:19:59;;;;;;;2.60;1.90;;;;;;;6.36;64.57;96807.56;8429656;28;20332;-82
2022/01/31 14:24:04;;;;;;;2.47;1.30;;;;;;;6.32;64.08;96818.88;8431916;28;20226;-82
2022/01/31 14:28:36;;;;;;;4.40;1.60;;;;;;;6.31;63.91;96823.19;8431506;28;20229;-83
2022/01/31 14:32:39;;;;;;;2.10;1.40;;;;;;;6.33;64.04;96800.81;8428125;28;20236;-82
2022/01/31 14:36:45;;;;;;;1.53;1.10;;;;;;;6.32;63.98;96824.03;8430690;28;20335;-82
2022/01/31 14:41:10;;;;;;;1.33;1.03;;;;;;;6.29;64.30;96808.75;8429694;28;20231;-82
2022/01/31 14:49:40;;;;;;;1.53;1.33;;;;;;;6.42;64.26;96841.56;8430642;28;20227;-82
2022/01/31 14:53:54;;;;;;;2.80;1.23;;;;;;;6.52;63.66;96834.25;8430328;28;20328;-82
2022/01/31 14:57:57;;;;;;;3.37;1.77;;;;;;;6.56;63.48;96855.53;8430723;28;20241;-82
2022/01/31 15:02:02;;;;;;;1.40;1.20;;;;;;;6.49;63.99;96867.81;8426226;28;20227;-82
2022/01/31 15:06:25;;;;;;;3.93;2.00;;;;;;;6.42;64.05;96854.41;8435355;28;20226;-81
2022/01/31 15:10:31;;;;;;;3.20;1.57;;;;;;;6.56;63.09;96870.97;8445889;28;20237;-82
2022/01/31 15:14:35;;;;;;;1.97;1.13;;;;;;;6.70;63.54;96878.88;8441130;28;20526;-81
2022/01/31 15:18:40;;;;;;;3.03;1.77;;;;;;;6.65;63.52;96889.38;8429907;28;20222;-83
2022/01/31 15:22:51;;;;;;;1.83;1.20;;;;;;;6.53;63.44;96892.50;8445524;28;20225;-83
2022/01/31 15:26:55;;;;;;;1.97;1.00;;;;;;;6.55;64.09;96903.56;8435557;28;20226;-82
2022/01/31 15:30:58;;;;;;;2.47;1.37;;;;;;;6.63;64.08;96911.75;8431288;28;20226;-83
2022/01/31 15:35:04;;;;;;;3.00;1.67;;;;;;;6.78;63.55;96922.28;8430324;28;20230;-82
2022/01/31 15:39:10;;;;;;;3.27;1.30;;;;;;;6.50;64.10;96927.81;8428590;28;20230;-82
2022/01/31 15:43:14;;;;;;;3.07;1.50;;;;;;;6.66;63.79;96933.94;8426837;28;20230;-82
2022/01/31 15:47:17;;;;;;;2.67;2.20;;;;;;;6.69;64.02;96949.25;8429688;28;20231;-81
2022/01/31 15:51:22;;;;;;;2.40;1.60;;;;;;;6.74;63.82;96956.75;8426383;28;20242;-81
2022/01/31 15:55:25;;;;;;;1.53;1.30;;;;;;;6.65;64.36;96958.00;8425551;28;20230;-82
2022/01/31 15:59:31;;;;;;;2.30;1.40;;;;;;;6.81;63.41;96971.84;8424832;28;20341;-82
2022/01/31 16:03:34;;;;;;;2.57;1.40;;;;;;;6.76;63.82;96971.22;8423587;28;20226;-82
2022/01/31 16:07:40;;;;;;;2.57;1.30;;;;;;;6.83;63.93;96982.06;8425348;28;20233;-84
2022/01/31 16:11:43;;;;;;;2.97;1.20;;;;;;;6.64;64.05;96990.63;8444929;28;20233;-83
2022/01/31 16:16:06;;;;;;;2.93;1.80;;;;;;;6.85;64.27;96993.13;8456934;28;20233;-82
2022/01/31 16:20:11;;;;;;;5.30;2.80;;;;;;;6.89;64.04;96997.22;8452341;28;20233;-83
2022/01/31 16:24:16;;;;;;;2.17;1.43;;;;;;;6.92;63.88;97001.41;8452472;28;20285;-83
2022/01/31 16:28:21;;;;;;;5.60;3.70;;;;;;;6.81;63.85;96996.75;8451884;28;20230;-83
2022/01/31 16:32:25;;;;;;;2.33;1.80;;;;;;;6.92;64.10;97007.41;8451874;28;20255;-83
2022/01/31 16:36:28;;;;;;;1.87;1.30;;;;;;;6.79;64.40;97016.56;8451926;28;20230;-83
2022/01/31 16:40:33;;;;;;;2.10;1.40;;;;;;;6.43;64.55;97015.53;8421068;28;20231;-83
2022/01/31 16:44:36;;;;;;;2.47;1.40;;;;;;;6.73;64.18;97027.97;8418480;28;20231;-83
2022/01/31 16:48:39;;;;;;;1.70;1.50;;;;;;;6.72;64.23;97041.75;8417606;28;20432;-83
2022/01/31 16:52:42;;;;;;;2.73;1.70;;;;;;;6.82;63.77;97035.28;8417428;28;20422;-83
2022/01/31 16:56:47;;;;;;;2.13;1.70;;;;;;;6.72;64.43;97036.59;8417113;28;20226;-83
2022/01/31 17:00:50;;;;;;;4.43;3.13;;;;;;;6.68;64.63;97047.09;8420243;28;20235;-83
2022/01/31 17:04:53;;;;;;;7.10;5.57;;;;;;;6.46;65.99;97055.72;8431306;28;20231;-83
2022/01/31 17:08:56;;;;;;;3.70;3.20;;;;;;;6.50;65.20;97066.72;8430313;28;20226;-82
2022/01/31 17:13:01;;;;;;;4.20;2.97;;;;;;;6.64;65.33;97064.38;8431212;28;20230;-83
2022/01/31 17:17:06;;;;;;;3.80;2.83;;;;;;;6.71;64.69;97070.13;8433023;28;20227;-83
2022/01/31 17:21:09;;;;;;;2.83;2.40;;;;;;;6.62;65.70;97068.75;8435489;28;20236;-82
2022/01/31 17:25:13;;;;;;;2.60;1.60;;;;;;;6.79;64.20;97084.31;8416214;28;20223;-84
2022/01/31 17:29:17;;;;;;;2.73;2.00;;;;;;;6.82;64.83;97083.34;8417373;28;20226;-84
2022/01/31 17:33:21;;;;;;;2.17;1.60;;;;;;;6.82;63.81;97094.47;8448283;28;20501;-84
2022/01/31 17:37:24;;;;;;;3.83;1.80;;;;;;;6.64;64.98;97096.13;8418423;28;20230;-84
2022/01/31 17:41:28;;;;;;;1.97;1.70;;;;;;;6.81;64.64;97097.13;8417698;28;20246;-84
2022/01/31 17:45:36;;;;;;;1.80;1.60;;;;;;;7.01;63.71;97106.56;8416907;28;20234;-83
2022/01/31 17:49:39;;;;;;;2.63;2.17;;;;;;;7.08;63.57;97107.94;8415419;28;20239;-81
2022/01/31 17:53:48;;;;;;;2.27;1.90;;;;;;;6.84;64.36;97102.13;8437335;28;20249;-82
2022/01/31 17:57:53;;;;;;;3.87;2.07;;;;;;;6.80;64.19;97105.75;8430912;28;20238;-82
2022/01/31 18:02:02;;;;;;;2.90;1.70;;;;;;;6.65;64.16;97120.94;8415321;28;20249;-82
2022/01/31 18:06:05;;;;;;;2.30;1.73;;;;;;;6.83;63.84;97136.47;8415174;28;20267;-82
2022/01/31 18:10:08;;;;;;;2.93;1.83;;;;;;;6.81;64.48;97151.97;8414776;28;20227;-83
2022/01/31 18:14:11;;;;;;;2.07;1.57;;;;;;;6.94;64.37;97146.34;8414665;28;20239;-82
2022/01/31 18:18:16;;;;;;;2.30;1.90;;;;;;;6.85;64.15;97155.28;8420791;28;20226;-83
2022/01/31 18:22:19;;;;;;;2.20;1.70;;;;;;;6.75;64.68;97159.97;8431072;28;20222;-85
2022/01/31 18:26:22;;;;;;;11.20;8.33;;;;;;;6.87;63.98;97163.75;8429016;28;20237;-84
2022/01/31 18:30:27;;;;;;;2.95;2.20;;;;;;;7.20;63.11;97169.22;8413359;28;20424;-82
2022/01/31 18:34:32;;;;;;;2.47;2.00;;;;;;;6.79;64.64;97182.09;8417078;28;20532;-84
2022/01/31 18:38:37;;;;;;;4.50;2.03;;;;;;;6.62;64.68;97200.81;8439417;28;20218;-83
2022/01/31 18:42:40;;;;;;;3.07;2.30;;;;;;;6.62;63.99;97200.81;8432828;28;20256;-82
2022/01/31 18:46:46;;;;;;;1.83;1.40;;;;;;;6.81;63.77;97210.34;8426592;28;20533;-83
2022/01/31 18:50:53;;;;;;;1.40;1.30;;;;;;;6.84;63.86;97216.22;8438076;28;20230;-80
2022/01/31 18:54:56;;;;;;;2.60;2.30;;;;;;;6.87;63.09;97211.84;8413740;28;20436;-81
2022/01/31 18:58:59;;;;;;;2.47;1.87;;;;;;;6.91;62.70;97215.94;8413740;28;20230;-81
2022/01/31 19:03:03;;;;;;;3.10;2.73;;;;;;;7.01;62.68;97222.41;8413774;28;20226;-81
2022/01/31 19:07:07;;;;;;;1.70;1.60;;;;;;;6.83;62.91;97240.28;8413910;28;20256;-81
2022/01/31 19:11:15;;;;;;;2.00;1.77;;;;;;;7.01;62.84;97243.84;8414393;28;20292;-81
2022/01/31 19:19:39;;;;;;;4.87;2.50;;;;;;;7.20;62.89;97250.78;8413006;28;20222;-81
2022/01/31 19:23:44;;;;;;;8.17;2.60;;;;;;;8.93;83.16;97251.53;8413388;28;20230;-80
2022/01/31 19:27:47;;;;;;;7.60;2.90;;;;;;;10.41;68.11;97260.28;8421161;28;20234;-81
2022/01/31 19:31:50;;;;;;;2.27;1.93;;;;;;;10.31;60.96;97257.38;8430439;28;20568;-80
2022/01/31 19:35:54;;;;;;;3.07;2.10;;;;;;;8.93;58.36;97256.72;8435133;28;20252;-82
2022/01/31 19:44:19;;;;;;;2.97;2.53;;;;;;;7.40;61.69;97273.13;8428522;28;20222;-81
2022/01/31 19:48:23;;;;;;;2.83;2.53;;;;;;;7.84;60.69;97272.91;8406156;28;20238;-81
2022/01/31 19:52:26;;;;;;;2.17;1.97;;;;;;;7.74;61.13;97274.25;8402998;28;20428;-80